Time;durP1;ratioP1;P1;durP2;ratioP2;P2;SDS_P1;SDS_P2;PMS_P1;PMS_P2;Temp;Humidity;BMP_temperature;BMP_pressure;BME280_temperature;BME280_humidity;BME280_pressure;Samples;Min_cycle;Max_cycle;Signal;HPM_P1;HPM_P2
2022/11/05 00:26:34;;;;;;;12.10;5.47;;;;;;;10.39;100.00;97541.78;5105860;27;20363;-95
2022/11/05 00:28:59;;;;;;;16.27;5.05;;;;;;;10.52;100.00;97539.41;5073500;28;20099;-93
2022/11/05 00:34:47;;;;;;;15.30;5.03;;;;;;;10.63;100.00;97558.38;5071589;28;20025;-95
2022/11/05 00:37:16;;;;;;;11.88;5.35;;;;;;;10.72;100.00;97551.75;5071673;28;20048;-94
2022/11/05 00:39:42;;;;;;;13.02;5.40;;;;;;;10.69;100.00;97527.97;5071450;28;20045;-94
2022/11/05 00:55:57;;;;;;;11.52;5.10;;;;;;;10.62;100.00;97503.47;5064242;28;20417;-95
2022/11/05 00:58:23;;;;;;;16.80;4.82;;;;;;;10.73;100.00;97507.41;5057512;28;20049;-94
2022/11/05 01:04:32;;;;;;;12.18;4.22;;;;;;;11.06;100.00;97528.84;5048814;28;20037;-94
2022/11/05 01:06:57;;;;;;;11.60;4.30;;;;;;;10.93;100.00;97509.09;5052925;28;20045;-93
2022/11/05 01:09:23;;;;;;;9.70;3.90;;;;;;;11.00;100.00;97534.50;5051537;28;20056;-95
2022/11/05 01:15:12;;;;;;;11.68;4.63;;;;;;;10.81;100.00;97545.16;5051717;28;20148;-94
2022/11/05 01:17:38;;;;;;;11.98;4.57;;;;;;;10.72;100.00;97537.63;5053254;28;20072;-96
2022/11/05 01:20:05;;;;;;;14.02;4.50;;;;;;;10.53;100.00;97556.22;5065813;28;20041;-95
2022/11/05 01:22:31;;;;;;;10.80;4.32;;;;;;;10.22;100.00;97549.63;5072626;28;20099;-95
2022/11/05 01:24:56;;;;;;;11.57;4.22;;;;;;;10.31;100.00;97569.63;5072338;28;20072;-93
2022/11/05 01:30:45;;;;;;;9.80;4.13;;;;;;;10.11;100.00;97571.34;5052343;28;20045;-93
2022/11/05 01:33:11;;;;;;;14.88;4.45;;;;;;;10.25;100.00;97584.00;5062691;28;20067;-92
2022/11/05 01:35:38;;;;;;;10.70;4.10;;;;;;;10.25;100.00;97578.69;5058330;28;20491;-95
2022/11/05 01:38:04;;;;;;;9.23;4.07;;;;;;;10.18;100.00;97570.13;5052576;28;20046;-96
2022/11/05 01:40:30;;;;;;;9.95;3.40;;;;;;;10.09;100.00;97551.97;5052222;28;20049;-94
2022/11/05 01:42:55;;;;;;;25.00;4.45;;;;;;;10.20;100.00;97570.06;5052689;28;20037;-96
2022/11/05 01:52:05;;;;;;;9.35;4.70;;;;;;;10.28;100.00;97536.06;5045107;28;20053;-93
2022/11/05 01:57:56;;;;;;;7.30;2.90;;;;;;;10.25;100.00;97522.91;5066611;28;20025;-95
2022/11/05 02:04:34;;;;;;;11.57;3.63;;;;;;;10.19;100.00;97531.13;5053929;28;20021;-95
2022/11/05 02:07:01;;;;;;;8.30;3.47;;;;;;;9.91;100.00;97503.19;5043260;28;20033;-95
2022/11/05 02:09:33;;;;;;;9.23;3.15;;;;;;;9.86;100.00;97511.34;5037058;28;20049;-93
2022/11/05 02:11:59;;;;;;;7.97;2.80;;;;;;;9.69;100.00;97489.13;5047011;28;20449;-93
2022/11/05 02:14:25;;;;;;;10.15;2.97;;;;;;;9.59;100.00;97496.66;5053768;28;20037;-93
2022/11/05 02:20:31;;;;;;;10.55;4.00;;;;;;;9.76;100.00;97527.75;5045695;28;20033;-93
2022/11/05 02:23:23;;;;;;;10.43;4.15;;;;;;;9.82;100.00;97540.75;5045759;28;20144;-95
2022/11/05 02:26:12;;;;;;;14.32;4.40;;;;;;;9.67;100.00;97526.34;5038121;28;20049;-95
2022/11/05 02:29:16;;;;;;;10.93;4.30;;;;;;;9.80;100.00;97547.91;5038625;28;20053;-93
2022/11/05 02:35:15;;;;;;;8.25;4.13;;;;;;;9.75;100.00;97540.16;5038413;28;20033;-94
2022/11/05 02:41:09;;;;;;;10.35;3.47;;;;;;;9.74;100.00;97537.59;5056778;28;20952;-93
2022/11/05 02:43:46;;;;;;;11.45;4.15;;;;;;;9.69;100.00;97524.50;5056099;28;20102;-94
2022/11/05 02:49:41;;;;;;;7.88;3.45;;;;;;;9.63;100.00;97546.88;5018179;28;20030;-94
2022/11/05 02:52:15;;;;;;;10.30;3.78;;;;;;;9.54;100.00;97539.31;5017756;28;20457;-94
2022/11/05 02:54:46;;;;;;;9.32;3.50;;;;;;;9.54;100.00;97543.72;5018147;28;20487;-94
2022/11/05 02:57:12;;;;;;;9.60;3.28;;;;;;;9.51;100.00;97539.41;5017796;28;20092;-94
2022/11/05 02:59:38;;;;;;;8.00;3.22;;;;;;;9.37;100.00;97537.38;5016355;28;20046;-93
2022/11/05 03:05:36;;;;;;;7.10;3.13;;;;;;;9.48;100.00;97571.41;5025210;28;20033;-93
2022/11/05 03:08:14;;;;;;;12.25;3.33;;;;;;;9.41;100.00;97559.31;5038636;28;20049;-95
2022/11/05 03:10:46;;;;;;;8.60;2.83;;;;;;;9.47;100.00;97572.31;5056057;28;20498;-94
2022/11/05 03:13:18;;;;;;;9.30;2.92;;;;;;;9.41;100.00;97564.59;5041339;28;20041;-95
2022/11/05 03:22:37;;;;;;;9.00;2.90;;;;;;;9.35;100.00;97563.09;5047522;28;20038;-93
2022/11/05 03:25:11;;;;;;;8.98;2.90;;;;;;;9.39;100.00;97587.69;5038469;28;20525;-93
2022/11/05 03:27:41;;;;;;;9.77;3.53;;;;;;;9.34;100.00;97579.91;5052312;28;20087;-94
2022/11/05 03:36:55;;;;;;;11.73;4.93;;;;;;;9.28;100.00;97572.22;5026751;28;20428;-94
2022/11/05 03:39:28;;;;;;;9.23;4.47;;;;;;;9.34;100.00;97587.88;5056139;28;20055;-94
2022/11/05 03:41:58;;;;;;;9.18;4.25;;;;;;;9.31;100.00;97587.16;5046475;28;20037;-94
2022/11/05 03:44:28;;;;;;;17.15;5.13;;;;;;;9.25;100.00;97581.16;5037256;28;20041;-96
2022/11/05 03:50:21;;;;;;;11.68;3.95;;;;;;;9.39;100.00;97579.72;5056247;28;20481;-96
2022/11/05 03:52:51;;;;;;;13.65;4.18;;;;;;;9.44;100.00;97593.69;5048210;28;20061;-95
2022/11/05 03:55:54;;;;;;;9.63;3.88;;;;;;;9.38;100.00;97605.41;5042523;28;20050;-95
2022/11/05 03:58:23;;;;;;;11.73;4.65;;;;;;;9.40;100.00;97573.50;5056990;28;20044;-96
2022/11/05 04:00:50;;;;;;;7.78;3.78;;;;;;;9.61;100.00;97587.69;5052448;28;20045;-94
2022/11/05 04:25:57;;;;;;;10.85;4.30;;;;;;;10.00;100.00;97645.34;5114842;28;20083;-94
2022/11/05 04:30:17;;;;;;;15.50;4.05;;;;;;;10.07;99.71;97654.75;5114766;28;20089;-93
2022/11/05 04:31:08;;;;;;;7.88;3.50;;;;;;;9.99;99.31;97631.16;5107222;28;20047;-94
2022/11/05 04:37:23;;;;;;;12.48;3.95;;;;;;;10.26;97.97;97658.34;5093510;28;20024;-94
2022/11/05 04:39:50;;;;;;;7.75;3.58;;;;;;;10.18;98.57;97647.19;5094024;28;20050;-93
2022/11/05 04:45:38;;;;;;;8.88;4.13;;;;;;;10.27;97.60;97640.59;5114371;28;20024;-94
2022/11/05 04:48:04;;;;;;;7.35;3.33;;;;;;;10.24;97.68;97632.78;5113710;28;20046;-94
2022/11/05 04:53:52;;;;;;;7.57;3.13;;;;;;;10.36;95.94;97642.88;5114762;28;20552;-95
2022/11/05 04:56:22;;;;;;;8.02;3.42;;;;;;;10.55;96.52;97658.03;5114064;28;20063;-94
2022/11/05 04:58:48;;;;;;;6.45;3.30;;;;;;;10.56;95.93;97659.72;5114503;28;20075;-94
2022/11/05 05:01:16;;;;;;;7.70;2.85;;;;;;;10.59;96.18;97651.63;5112929;28;20374;-95
2022/11/05 05:03:42;;;;;;;7.43;2.92;;;;;;;10.55;95.13;97636.75;5113374;28;20036;-96
2022/11/05 05:06:09;;;;;;;9.25;3.65;;;;;;;10.73;94.19;97654.50;5112730;28;20059;-93
2022/11/05 05:08:36;;;;;;;5.68;2.53;;;;;;;10.74;93.15;97639.44;5113781;28;20127;-94
2022/11/05 05:11:03;;;;;;;5.32;2.42;;;;;;;10.75;92.81;97641.16;5113838;28;20051;-95
2022/11/05 05:13:32;;;;;;;4.15;2.20;;;;;;;10.85;92.77;97658.41;5114136;28;20040;-95
2022/11/05 05:22:51;;;;;;;4.68;2.25;;;;;;;10.87;92.56;97684.00;5085174;28;20036;-94
2022/11/05 05:38:46;;;;;;;4.50;2.55;;;;;;;10.79;94.36;97675.50;5100464;28;20027;-94
2022/11/05 05:44:43;;;;;;;7.30;2.67;;;;;;;10.76;94.94;97673.00;5100120;28;20107;-94
2022/11/05 05:50:31;;;;;;;3.50;1.98;;;;;;;10.80;95.00;97694.97;5086950;28;20107;-94
2022/11/05 05:56:20;;;;;;;5.32;2.10;;;;;;;10.81;91.34;97686.94;5099834;28;20028;-93
2022/11/05 05:58:46;;;;;;;3.80;2.17;;;;;;;10.96;88.66;97692.50;5099558;28;20052;-94
2022/11/05 06:02:04;;;;;;;3.83;2.05;;;;;;;11.08;88.43;97702.56;5098303;28;20044;-94
2022/11/05 06:04:30;;;;;;;5.47;2.07;;;;;;;11.04;88.15;97701.00;5099627;28;20032;-94
2022/11/05 06:06:59;;;;;;;5.40;2.08;;;;;;;11.01;87.95;97695.81;5098880;28;20265;-95
2022/11/05 06:09:24;;;;;;;4.25;2.15;;;;;;;11.17;84.05;97696.84;5102313;28;20073;-96
2022/11/05 06:11:52;;;;;;;4.13;1.70;;;;;;;11.29;82.18;97696.25;5099214;28;20036;-95
2022/11/05 06:14:18;;;;;;;3.05;1.48;;;;;;;11.39;81.16;97706.47;5100506;28;20051;-94
2022/11/05 06:20:12;;;;;;;3.30;1.77;;;;;;;11.44;80.49;97699.13;5100647;28;20035;-94
2022/11/05 06:22:38;;;;;;;3.63;1.60;;;;;;;11.34;78.93;97679.19;5102441;28;20036;-95
2022/11/05 06:25:05;;;;;;;2.67;1.63;;;;;;;11.48;80.14;97714.03;5098000;28;20481;-95
2022/11/05 06:27:35;;;;;;;2.60;1.60;;;;;;;11.36;79.09;97691.50;5102231;28;20082;-96
2022/11/05 06:30:04;;;;;;;1.75;1.35;;;;;;;11.51;77.26;97703.22;5102744;28;20284;-93
2022/11/05 06:32:30;;;;;;;1.70;1.30;;;;;;;11.65;75.56;97697.25;5106727;28;20108;-96
2022/11/05 06:34:56;;;;;;;1.77;1.25;;;;;;;11.65;74.97;97682.13;5104408;28;20036;-94
2022/11/05 06:37:22;;;;;;;4.57;1.30;;;;;;;11.58;75.12;97672.72;5103348;28;20044;-95
2022/11/05 06:39:48;;;;;;;1.80;1.13;;;;;;;11.81;73.97;97708.00;5102769;28;20051;-95
2022/11/05 06:49:32;;;;;;;1.35;1.00;;;;;;;11.89;73.34;97753.81;5103293;28;20063;-95
2022/11/05 06:52:02;;;;;;;1.67;1.20;;;;;;;11.86;73.16;97756.56;5101932;28;20051;-94
2022/11/05 06:55:21;;;;;;;2.10;1.25;;;;;;;11.86;73.54;97768.13;5105637;28;20052;-94
2022/11/05 06:57:47;;;;;;;3.20;1.10;;;;;;;11.69;74.93;97752.09;5109877;28;20058;-94
2022/11/05 07:03:36;;;;;;;3.13;1.30;;;;;;;11.58;76.40;97754.38;5108777;28;20044;-96
2022/11/05 07:06:06;;;;;;;1.30;1.20;;;;;;;11.70;74.67;97759.97;5107250;28;20055;-95
2022/11/05 07:08:32;;;;;;;2.08;1.30;;;;;;;11.67;74.92;97769.94;5105107;28;20122;-95
2022/11/05 07:10:58;;;;;;;2.40;1.52;;;;;;;11.83;75.44;97791.38;5106949;28;20040;-95
2022/11/05 07:13:25;;;;;;;2.13;1.20;;;;;;;11.69;74.07;97782.22;5105566;28;20044;-93
2022/11/05 07:19:34;;;;;;;2.10;1.35;;;;;;;11.85;74.93;97808.13;5104644;28;20049;-92
2022/11/05 07:22:02;;;;;;;1.90;1.45;;;;;;;11.68;74.85;97783.16;5093936;28;20044;-94
2022/11/05 07:24:27;;;;;;;1.50;1.20;;;;;;;11.74;74.50;97786.47;5102763;28;20055;-95
2022/11/05 07:26:54;;;;;;;1.65;1.30;;;;;;;11.93;75.13;97814.00;5104859;28;20075;-95
2022/11/05 07:29:21;;;;;;;1.10;1.00;;;;;;;11.74;73.94;97789.16;5104228;28;20048;-96
2022/11/05 07:35:09;;;;;;;1.20;1.10;;;;;;;11.79;74.80;97787.97;5101428;28;20032;-95
2022/11/05 07:37:43;;;;;;;1.25;1.15;;;;;;;12.02;73.83;97823.34;5101325;28;20505;-95
2022/11/05 07:43:48;;;;;;;3.47;1.65;;;;;;;12.06;74.16;97809.81;5102220;28;20051;-95
2022/11/05 07:49:36;;;;;;;2.63;1.30;;;;;;;12.25;73.07;97835.53;5101421;28;20024;-95
2022/11/05 07:52:02;;;;;;;1.80;1.27;;;;;;;12.20;73.62;97810.94;5099820;28;20056;-95
2022/11/05 07:54:32;;;;;;;3.40;1.48;;;;;;;12.27;72.70;97801.69;5101076;28;20554;-95
2022/11/05 07:56:58;;;;;;;1.83;1.38;;;;;;;12.39;73.09;97803.75;5102138;28;20057;-95
2022/11/05 07:59:24;;;;;;;2.13;1.88;;;;;;;12.47;71.99;97808.69;5101928;28;20048;-94
2022/11/05 08:05:11;;;;;;;4.90;1.60;;;;;;;12.93;73.40;97823.22;5103722;28;20040;-94
2022/11/05 08:07:40;;;;;;;1.67;1.13;;;;;;;13.29;70.62;97808.94;5102204;28;20051;-96
2022/11/05 08:10:08;;;;;;;1.55;1.25;;;;;;;13.75;69.80;97808.25;5103970;28;20161;-94
2022/11/05 08:19:23;;;;;;;2.90;2.08;;;;;;;14.79;66.25;97826.34;5101075;28;20048;-96
2022/11/05 08:21:49;;;;;;;2.88;1.50;;;;;;;14.58;66.40;97825.78;5101896;28;20051;-94
2022/11/05 08:24:15;;;;;;;2.67;1.80;;;;;;;14.43;66.35;97815.09;5099990;28;20063;-95
2022/11/05 08:26:42;;;;;;;2.42;1.50;;;;;;;14.22;67.24;97817.19;5100078;28;20037;-94
2022/11/05 08:29:14;;;;;;;1.42;1.27;;;;;;;13.98;68.27;97812.28;5101147;28;20399;-94
2022/11/05 08:31:41;;;;;;;2.13;1.42;;;;;;;13.84;68.09;97804.19;5105208;28;20103;-95
2022/11/05 08:37:33;;;;;;;2.58;1.60;;;;;;;13.25;71.79;97828.69;5097210;28;20023;-95
2022/11/05 08:39:58;;;;;;;5.28;1.60;;;;;;;12.93;73.01;97811.69;5096670;28;20040;-95
2022/11/05 08:45:48;;;;;;;3.72;1.92;;;;;;;12.85;74.82;97827.22;5097481;28;20499;-96
2022/11/05 08:48:15;;;;;;;3.00;1.45;;;;;;;13.10;73.68;97827.69;5096390;28;20439;-94
2022/11/05 08:54:06;;;;;;;1.67;1.40;;;;;;;13.23;73.84;97803.88;5100180;28;20028;-95
2022/11/05 08:56:32;;;;;;;3.55;1.30;;;;;;;13.68;72.56;97826.38;5095207;28;20100;-94
2022/11/05 08:58:59;;;;;;;2.47;1.52;;;;;;;13.98;71.88;97822.97;5096110;28;20051;-94
2022/11/05 09:04:48;;;;;;;2.28;1.45;;;;;;;14.24;69.22;97789.41;5095697;28;20119;-96
2022/11/05 09:07:14;;;;;;;2.50;1.40;;;;;;;14.53;69.10;97798.44;5095021;28;20044;-95
2022/11/05 09:09:40;;;;;;;2.00;1.35;;;;;;;14.83;66.38;97821.66;5100157;28;20051;-94
2022/11/05 09:12:06;;;;;;;2.15;1.40;;;;;;;14.82;66.42;97813.75;5102190;28;20040;-95
2022/11/05 09:14:32;;;;;;;1.98;1.40;;;;;;;15.10;65.93;97808.44;5099407;28;20052;-95
2022/11/05 09:23:43;;;;;;;1.83;1.42;;;;;;;15.53;64.42;97816.53;5101528;28;20044;-96
2022/11/05 09:26:10;;;;;;;1.30;1.20;;;;;;;15.08;64.59;97823.75;5101191;28;20074;-95
2022/11/05 09:28:36;;;;;;;1.50;1.30;;;;;;;15.29;63.55;97818.91;5100372;28;20073;-95
2022/11/05 09:31:06;;;;;;;3.03;1.40;;;;;;;15.17;63.12;97827.69;5100583;28;20071;-94
2022/11/05 09:33:33;;;;;;;2.60;1.48;;;;;;;14.81;63.99;97847.66;5102795;28;20048;-95
2022/11/05 09:36:03;;;;;;;2.40;1.80;;;;;;;14.75;64.11;97824.81;5101456;28;20074;-94
2022/11/05 09:38:29;;;;;;;2.45;1.52;;;;;;;14.65;64.96;97838.81;5099884;28;20044;-95
2022/11/05 09:40:59;;;;;;;2.53;1.45;;;;;;;14.71;65.02;97855.38;5100384;28;20048;-95
2022/11/05 09:43:35;;;;;;;2.97;1.48;;;;;;;14.46;65.24;97855.88;5101003;28;20116;-95
2022/11/05 09:49:25;;;;;;;4.22;1.40;;;;;;;14.38;67.71;97888.44;5098489;28;20039;-95
2022/11/05 09:51:53;;;;;;;3.03;1.70;;;;;;;14.17;66.92;97878.94;5101211;28;20490;-96
2022/11/05 09:54:22;;;;;;;4.25;2.85;;;;;;;14.18;69.74;97881.56;5099428;28;20044;-94
2022/11/05 09:56:51;;;;;;;3.50;1.65;;;;;;;14.38;68.69;97899.16;5097803;28;20493;-95
2022/11/05 10:06:07;;;;;;;4.15;1.70;;;;;;;15.22;67.05;97897.03;5118210;28;20050;-94
2022/11/05 10:08:40;;;;;;;3.25;1.73;;;;;;;15.76;64.42;97908.91;5119656;28;20589;-95
2022/11/05 10:11:11;;;;;;;2.78;1.83;;;;;;;15.55;64.48;97912.91;5127020;27;20039;-96
2022/11/05 10:13:44;;;;;;;4.22;1.73;;;;;;;15.48;65.63;97906.16;5140450;27;20046;-95
2022/11/05 10:19:38;;;;;;;3.35;1.42;;;;;;;15.37;65.71;97921.06;5141161;27;20087;-96
2022/11/05 10:22:11;;;;;;;2.78;1.80;;;;;;;15.26;65.05;97942.28;5140261;27;20023;-94
2022/11/05 10:28:03;;;;;;;2.95;1.50;;;;;;;14.87;65.36;97902.66;5141048;27;20096;-95
2022/11/05 10:33:58;;;;;;;2.60;1.58;;;;;;;14.71;64.97;97924.09;5143622;27;20043;-94
2022/11/05 10:39:46;;;;;;;2.50;1.67;;;;;;;14.56;64.84;97902.59;5143948;27;20023;-95
2022/11/05 10:42:41;;;;;;;2.45;1.70;;;;;;;14.53;67.42;97892.06;5122001;28;20042;-95
2022/11/05 10:52:21;;;;;;;3.35;2.08;;;;;;;15.15;64.25;97899.22;5152575;27;20027;-96
2022/11/05 10:54:59;;;;;;;4.10;2.10;;;;;;;15.36;63.21;97889.03;5144782;27;20180;-96
2022/11/05 10:57:32;;;;;;;2.83;1.80;;;;;;;15.18;62.85;97886.50;5148553;27;20580;-96
2022/11/05 11:03:40;;;;;;;2.42;1.95;;;;;;;14.80;63.93;97883.41;5150694;27;20055;-94
2022/11/05 11:09:32;;;;;;;4.40;2.17;;;;;;;14.48;66.51;97896.78;5147697;27;20083;-96
2022/11/05 11:15:33;;;;;;;4.07;1.90;;;;;;;13.96;69.53;97879.19;5150105;27;20658;-95
2022/11/05 11:18:25;;;;;;;3.65;1.80;;;;;;;13.61;71.91;97883.78;5149894;27;20047;-95
2022/11/05 11:24:21;;;;;;;5.38;2.38;;;;;;;13.76;72.30;97890.09;5141160;27;20151;-96
2022/11/05 11:26:48;;;;;;;6.25;1.98;;;;;;;13.75;72.68;97889.25;5125416;28;20044;-94
2022/11/05 11:29:21;;;;;;;7.95;2.35;;;;;;;13.79;73.58;97892.59;5125493;28;20043;-94
2022/11/05 11:35:20;;;;;;;5.65;2.88;;;;;;;14.34;71.24;97884.22;5104346;28;20056;-94
2022/11/05 11:37:47;;;;;;;8.32;2.20;;;;;;;14.38;69.76;97883.09;5102937;28;20524;-94
2022/11/05 11:47:00;;;;;;;3.15;1.70;;;;;;;14.44;69.70;97916.63;5102617;28;20370;-95
2022/11/05 11:49:39;;;;;;;3.95;1.63;;;;;;;13.98;71.11;97911.19;5100978;28;20052;-95
2022/11/05 11:52:13;;;;;;;1.70;1.50;;;;;;;13.62;73.25;97896.19;5101484;28;20441;-96
2022/11/05 11:54:40;;;;;;;2.85;1.70;;;;;;;13.65;74.54;97906.72;5099368;28;20052;-96
2022/11/05 11:57:20;;;;;;;4.13;1.95;;;;;;;13.50;76.98;97889.69;5101173;28;20040;-95
2022/11/05 11:59:46;;;;;;;2.83;1.67;;;;;;;13.46;77.11;97893.47;5100284;28;20051;-95
2022/11/05 12:02:35;;;;;;;6.25;1.90;;;;;;;13.32;78.38;97907.56;5100257;28;20043;-96
2022/11/05 12:05:22;;;;;;;3.85;1.92;;;;;;;13.60;77.33;97929.25;5101565;28;20107;-95
2022/11/05 12:08:02;;;;;;;5.32;1.90;;;;;;;13.53;79.30;97934.06;5100806;28;20048;-96
2022/11/05 12:10:41;;;;;;;7.13;2.38;;;;;;;13.30;79.88;97912.09;5106439;28;20135;-94
2022/11/05 12:13:49;;;;;;;4.60;1.80;;;;;;;13.51;78.10;97909.25;5103368;28;20040;-95
2022/11/05 12:20:03;;;;;;;5.20;1.85;;;;;;;13.83;79.01;97912.00;5100165;28;20503;-95
2022/11/05 12:22:41;;;;;;;5.03;2.00;;;;;;;13.75;78.63;97915.13;5074519;28;20135;-95
2022/11/05 12:25:21;;;;;;;8.80;2.10;;;;;;;13.78;77.46;97936.31;5111980;28;20115;-94
2022/11/05 12:28:00;;;;;;;5.90;2.10;;;;;;;13.63;78.49;97916.63;5121239;28;20397;-95
2022/11/05 12:33:57;;;;;;;7.65;1.90;;;;;;;13.04;82.91;97948.09;5119791;28;20070;-95
2022/11/05 12:36:41;;;;;;;5.43;2.00;;;;;;;12.71;85.18;97942.66;5120894;28;20040;-96
2022/11/05 12:39:32;;;;;;;4.97;1.90;;;;;;;12.84;85.22;97943.78;5121125;28;20044;-95
2022/11/05 12:42:09;;;;;;;3.58;1.95;;;;;;;13.10;84.78;97938.94;5120719;28;20055;-96
2022/11/05 12:44:50;;;;;;;3.03;1.90;;;;;;;13.39;84.52;97947.28;5126729;28;20553;-95
2022/11/05 12:50:52;;;;;;;6.50;2.20;;;;;;;13.60;83.96;97931.94;5130644;28;20027;-95
2022/11/05 12:53:54;;;;;;;4.72;1.80;;;;;;;13.79;80.42;97967.41;5125959;28;20484;-96
2022/11/05 12:56:30;;;;;;;4.90;1.83;;;;;;;13.61;77.60;97952.38;5083194;28;20083;-94
2022/11/05 12:59:03;;;;;;;6.22;1.92;;;;;;;13.53;75.44;97940.28;5083633;28;20051;-96
2022/11/05 13:04:53;;;;;;;5.20;1.70;;;;;;;13.85;71.67;97956.41;5090581;28;20040;-96
2022/11/05 13:07:28;;;;;;;7.13;1.90;;;;;;;13.84;69.45;97943.16;5091766;28;20056;-96
2022/11/05 13:10:21;;;;;;;5.15;2.15;;;;;;;13.94;69.57;97947.03;5097314;28;20032;-96
2022/11/05 13:13:03;;;;;;;2.97;1.50;;;;;;;14.13;67.66;97968.28;5094105;28;20072;-96
2022/11/05 13:19:32;;;;;;;7.78;2.03;;;;;;;14.04;64.20;97982.16;5089542;28;20114;-95
2022/11/05 13:22:20;;;;;;;4.05;1.50;;;;;;;13.80;62.82;97937.09;5088525;28;20032;-96
2022/11/05 13:24:58;;;;;;;7.05;1.90;;;;;;;13.74;62.35;97932.94;5088387;28;20139;-96
2022/11/05 13:27:41;;;;;;;;;;;;;;;13.93;62.78;97959.53;5092540;28;20057;-96
2022/11/05 13:40:10;;;;;;;10.48;2.13;;;;;;;13.74;62.98;97988.19;5144778;27;20384;-94
2022/11/05 13:43:17;;;;;;;2.92;1.50;;;;;;;13.67;61.70;97960.06;5146836;27;20049;-96
2022/11/05 13:46:11;;;;;;;3.58;1.98;;;;;;;13.67;61.45;97963.59;5132503;22;20052;-96
2022/11/05 13:49:02;;;;;;;2.78;1.33;;;;;;;13.68;60.84;97962.63;5099117;28;20033;-96
2022/11/05 13:51:51;;;;;;;5.95;2.20;;;;;;;13.78;63.11;97981.75;5107331;28;20107;-95
2022/11/05 13:54:43;;;;;;;;;;;;;;;13.79;61.20;97994.13;5102302;28;20050;-96
2022/11/05 13:57:26;;;;;;;6.25;1.70;;;;;;;13.60;62.27;97964.88;5080005;28;19978;-96
2022/11/05 14:03:04;;;;;;;6.25;2.08;;;;;;;13.69;63.04;97995.59;5087976;28;20041;-95
2022/11/05 14:05:34;;;;;;;8.13;2.22;;;;;;;13.73;63.37;97999.84;5063133;28;20068;-95
2022/11/05 14:08:08;;;;;;;7.63;1.90;;;;;;;13.53;62.93;97993.72;5066867;28;20041;-96
2022/11/05 14:10:37;;;;;;;5.43;1.90;;;;;;;13.67;63.53;98017.03;5068638;28;20079;-96
2022/11/05 14:13:26;;;;;;;;;;;;;;;13.71;61.97;98007.91;5068232;28;20060;-95
2022/11/05 14:19:50;;;;;;;3.85;1.90;;;;;;;13.39;63.08;98027.41;5081600;28;20025;-96
2022/11/05 14:23:14;;;;;;;7.45;2.28;;;;;;;13.43;63.53;98027.16;5019185;28;20050;-96
2022/11/05 14:26:11;;;;;;;6.60;2.00;;;;;;;13.16;63.72;97997.31;5042622;28;20142;-96
2022/11/05 14:29:07;;;;;;;4.78;2.13;;;;;;;13.22;63.30;97993.50;5046198;28;20025;-95
2022/11/05 14:31:56;;;;;;;5.47;2.22;;;;;;;13.13;63.33;98002.84;5044784;28;20518;-96
2022/11/05 14:35:14;;;;;;;2.45;1.65;;;;;;;13.11;63.55;98002.03;5060082;28;20060;-96
2022/11/05 14:37:52;;;;;;;6.47;1.73;;;;;;;13.09;62.44;98001.25;5093601;28;20052;-96
2022/11/05 14:40:35;;;;;;;5.97;1.63;;;;;;;13.10;62.83;98013.69;5105901;28;20109;-96
2022/11/05 14:43:06;;;;;;;6.03;1.98;;;;;;;13.05;62.57;98018.34;5103041;28;20040;-96
2022/11/05 14:49:30;;;;;;;5.35;2.08;;;;;;;13.23;63.31;98057.50;5089194;28;20021;-95
2022/11/05 14:52:05;;;;;;;6.85;1.98;;;;;;;13.05;62.89;98040.56;5068521;28;20055;-96
2022/11/05 14:54:47;;;;;;;4.32;1.80;;;;;;;13.19;63.00;98065.75;5075338;28;20021;-96
2022/11/05 14:57:31;;;;;;;5.30;1.77;;;;;;;13.04;63.25;98041.53;5088496;28;20059;-96
2022/11/05 14:59:59;;;;;;;5.03;1.85;;;;;;;12.94;62.28;98050.91;5094339;28;20052;-96
2022/11/05 15:02:34;;;;;;;4.97;1.80;;;;;;;12.94;62.19;98041.09;5090353;28;20051;-96
2022/11/05 15:05:37;;;;;;;4.82;1.67;;;;;;;12.91;63.87;98054.59;5095039;28;20048;-96
2022/11/05 15:08:43;;;;;;;2.95;1.50;;;;;;;13.03;63.89;98089.63;5034806;28;20043;-96
2022/11/05 15:11:38;;;;;;;5.55;1.88;;;;;;;12.93;63.21;98052.72;5032052;28;20060;-96
2022/11/05 15:14:10;;;;;;;2.50;1.90;;;;;;;12.99;64.01;98082.69;5024679;28;20054;-96
2022/11/05 15:16:41;;;;;;;4.35;1.80;;;;;;;12.87;64.86;98077.03;5021196;28;20042;-93
2022/11/05 15:19:23;;;;;;;2.13;1.60;;;;;;;12.79;64.73;98087.19;5029763;28;20136;-96
2022/11/05 15:21:52;;;;;;;10.85;2.15;;;;;;;12.73;64.03;98093.69;5030618;28;20046;-96
2022/11/05 15:24:19;;;;;;;4.28;2.03;;;;;;;12.68;63.91;98085.00;5030712;28;20078;-96
2022/11/05 15:26:54;;;;;;;5.40;2.00;;;;;;;12.65;64.42;98105.66;5028639;28;20106;-96
2022/11/05 15:29:24;;;;;;;4.50;2.17;;;;;;;12.50;65.53;98102.75;5026962;28;20084;-96
2022/11/05 15:31:57;;;;;;;6.35;2.40;;;;;;;12.39;65.56;98109.50;5027699;28;20053;-96
2022/11/05 15:34:25;;;;;;;7.57;2.70;;;;;;;12.24;65.76;98111.91;5028301;28;20080;-95
2022/11/05 15:37:17;;;;;;;6.85;3.03;;;;;;;12.16;65.30;98108.72;5028470;28;20046;-96
2022/11/05 15:39:50;;;;;;;6.80;2.78;;;;;;;12.10;67.95;98109.88;5029103;28;20042;-96
2022/11/05 15:42:21;;;;;;;6.47;2.72;;;;;;;12.00;66.60;98107.66;5028354;28;20064;-96
2022/11/05 15:44:50;;;;;;;8.82;2.70;;;;;;;11.86;67.94;98116.19;5057719;28;20056;-96
2022/11/05 15:47:20;;;;;;;5.05;2.53;;;;;;;11.69;68.20;98112.47;5089954;28;20492;-96
2022/11/05 15:49:52;;;;;;;3.90;2.15;;;;;;;11.76;66.28;98125.53;5093968;28;20051;-95
2022/11/05 15:52:20;;;;;;;5.63;2.00;;;;;;;11.92;66.61;98142.63;5092409;28;20142;-95
2022/11/05 15:55:04;;;;;;;5.03;2.03;;;;;;;11.63;68.80;98120.72;5092979;28;20032;-96
2022/11/05 15:57:32;;;;;;;8.70;2.20;;;;;;;11.79;66.00;98154.69;5089931;28;20060;-94
2022/11/05 16:00:04;;;;;;;4.68;2.08;;;;;;;11.67;66.18;98132.13;5092314;28;20020;-95
2022/11/05 16:02:33;;;;;;;4.90;1.98;;;;;;;11.56;65.74;98121.91;5089529;28;20041;-96
2022/11/05 16:05:03;;;;;;;6.10;1.85;;;;;;;11.72;66.52;98164.75;5091466;28;20045;-96
2022/11/05 16:07:29;;;;;;;6.65;1.90;;;;;;;11.49;65.92;98129.28;5089966;28;20044;-96
2022/11/05 16:09:58;;;;;;;5.88;2.05;;;;;;;11.39;66.91;98135.91;5088157;28;20044;-96
2022/11/05 16:12:29;;;;;;;5.43;2.05;;;;;;;11.34;67.34;98129.88;5091240;28;20059;-94
2022/11/05 16:15:28;;;;;;;12.00;2.70;;;;;;;11.39;67.62;98161.66;5089832;28;20045;-96
2022/11/05 16:17:57;;;;;;;7.72;2.58;;;;;;;11.28;67.87;98136.34;5084939;28;20048;-95
2022/11/05 16:20:37;;;;;;;9.70;2.90;;;;;;;11.43;66.30;98168.63;5085551;28;20071;-96
2022/11/05 16:23:05;;;;;;;5.72;2.58;;;;;;;11.22;65.01;98133.91;5083823;28;20071;-96
2022/11/05 16:25:37;;;;;;;4.65;2.58;;;;;;;11.14;67.05;98133.34;5086479;28;20068;-96
2022/11/05 16:28:05;;;;;;;6.57;2.60;;;;;;;11.17;65.94;98140.34;5086500;28;20063;-96
2022/11/05 16:30:34;;;;;;;8.05;2.50;;;;;;;11.11;66.03;98136.16;5089690;28;20048;-95
2022/11/05 16:48:05;;;;;;;4.43;2.60;;;;;;;11.02;69.07;98168.44;4940023;29;20050;-96
2022/11/05 16:50:46;;;;;;;7.38;2.70;;;;;;;10.73;70.17;98138.47;4947148;29;20055;-96
2022/11/05 16:53:13;;;;;;;5.22;3.03;;;;;;;10.68;70.28;98145.78;4945713;29;20047;-96
2022/11/05 16:55:40;;;;;;;6.78;3.10;;;;;;;10.82;69.97;98185.13;4945156;29;20047;-94
2022/11/05 16:58:17;;;;;;;7.00;3.65;;;;;;;10.79;68.42;98148.88;4942675;29;20043;-96
2022/11/05 17:00:44;;;;;;;8.30;3.17;;;;;;;10.79;71.29;98171.97;4947704;29;20047;-96
2022/11/05 17:08:02;;;;;;;;;;;;;;;;;;;;;
2022/11/05 17:10:53;;;;;;;7.15;3.13;;;;;;;10.12;78.57;98215.09;4969582;29;20027;-96
2022/11/05 17:13:20;;;;;;;6.82;3.42;;;;;;;9.83;79.45;98182.41;5010145;28;20095;-96
2022/11/05 17:15:48;;;;;;;5.63;3.05;;;;;;;9.72;79.60;98187.22;5028950;28;20101;-95
2022/11/05 17:18:35;;;;;;;4.88;3.13;;;;;;;9.60;79.86;98183.16;5028096;28;20030;-96
2022/11/05 17:21:01;;;;;;;5.95;3.58;;;;;;;9.82;76.43;98189.53;5027328;28;20067;-96
2022/11/05 17:23:31;;;;;;;6.95;3.20;;;;;;;10.23;72.77;98189.00;5026231;28;20049;-96
2022/11/05 17:26:01;;;;;;;11.35;3.47;;;;;;;10.53;72.51;98207.50;5027864;28;20157;-96
2022/11/05 17:28:36;;;;;;;7.15;3.20;;;;;;;10.66;70.69;98219.41;5029397;28;20050;-96
2022/11/05 17:31:05;;;;;;;9.35;3.17;;;;;;;10.50;71.27;98184.53;5080483;28;20041;-94
2022/11/05 17:33:34;;;;;;;6.50;3.78;;;;;;;10.68;70.09;98193.63;5088431;28;20040;-95
2022/11/05 17:36:05;;;;;;;6.53;3.60;;;;;;;10.75;69.92;98207.56;5088131;28;20051;-95
2022/11/05 17:38:31;;;;;;;6.85;3.45;;;;;;;10.70;69.45;98186.47;5086188;28;20037;-95